Time;durP1;ratioP1;P1;durP2;ratioP2;P2;SDS_P1;SDS_P2;PMS_P1;PMS_P2;Temp;Humidity;BMP_temperature;BMP_pressure;BME280_temperature;BME280_humidity;BME280_pressure;Samples;Min_cycle;Max_cycle;Signal;HPM_P1;HPM_P2
2023/03/05 00:01:09;;;;;;;72.07;31.45;;;;;;;;;;5000848;28;20539;-75
2023/03/05 00:03:34;;;;;;;70.78;31.25;;;;;;;;;;4983074;28;20396;-76
2023/03/05 00:05:59;;;;;;;64.53;28.93;;;;;;;2.96;nan;100251.03;4983773;28;20029;-75
2023/03/05 00:08:26;;;;;;;69.07;29.15;;;;;;;2.93;nan;100248.81;5000608;28;20292;-75
2023/03/05 00:11:00;;;;;;;60.38;28.38;;;;;;;3.04;nan;100252.75;5000352;28;20029;-75
2023/03/05 00:13:25;;;;;;;65.90;29.25;;;;;;;2.96;nan;100244.03;5002366;28;20030;-75
2023/03/05 00:15:51;;;;;;;58.67;28.13;;;;;;;2.94;nan;100235.59;4983584;28;20085;-75
2023/03/05 00:18:16;;;;;;;61.47;27.05;;;;;;;2.87;nan;100218.31;5000896;28;20491;-76
2023/03/05 00:20:42;;;;;;;60.28;26.80;;;;;;;2.91;nan;100220.38;4981448;28;20100;-75
2023/03/05 00:23:07;;;;;;;58.17;25.73;;;;;;;2.91;nan;100220.38;4980071;28;20034;-75
2023/03/05 00:25:36;;;;;;;59.95;26.67;;;;;;;2.85;nan;100200.31;4997348;28;20022;-75
2023/03/05 00:28:02;;;;;;;;;;;;;;;3.04;nan;100229.34;4986710;28;20034;-75
2023/03/05 00:30:28;;;;;;;49.58;22.73;;;;;;;2.85;nan;100202.06;4999375;28;20442;-75
2023/03/05 00:32:53;;;;;;;57.63;24.25;;;;;;;2.91;nan;100215.16;4997718;28;20036;-75
2023/03/05 00:35:18;;;;;;;55.28;24.35;;;;;;;2.88;nan;100204.34;5000502;28;20033;-75
2023/03/05 00:37:44;;;;;;;57.85;24.17;;;;;;;2.89;nan;100205.94;4984590;28;20050;-75
2023/03/05 00:40:10;;;;;;;53.97;23.77;;;;;;;2.73;nan;100197.34;4979313;28;20026;-74
2023/03/05 00:42:37;;;;;;;53.03;22.52;;;;;;;2.71;nan;100191.50;5002769;28;20048;-75
2023/03/05 00:45:04;;;;;;;51.03;23.25;;;;;;;2.77;nan;100214.16;4990312;28;20029;-75
2023/03/05 00:47:29;;;;;;;50.13;23.10;;;;;;;2.69;nan;100198.66;4984222;28;20496;-75
2023/03/05 00:49:55;;;;;;;46.08;21.00;;;;;;;2.43;nan;100167.88;5001369;28;20030;-75
2023/03/05 00:52:20;;;;;;;44.80;20.20;;;;;;;2.66;nan;100206.81;4999072;28;20034;-75
2023/03/05 00:54:46;;;;;;;40.58;19.15;;;;;;;2.71;nan;100209.69;4989918;28;20531;-75
2023/03/05 00:57:11;;;;;;;47.00;20.50;;;;;;;2.70;nan;100202.88;4997951;28;20593;-75
2023/03/05 00:59:36;;;;;;;48.45;20.90;;;;;;;2.58;nan;100187.91;4995974;28;20024;-75
2023/03/05 01:02:02;;;;;;;43.35;20.02;;;;;;;2.70;nan;100218.47;4999840;28;20030;-75
2023/03/05 01:04:27;;;;;;;42.00;20.15;;;;;;;2.71;nan;100212.28;4999771;28;20365;-75
2023/03/05 01:06:53;;;;;;;43.85;19.48;;;;;;;2.55;nan;100200.25;5000958;28;20909;-75
2023/03/05 01:09:18;;;;;;;44.15;18.40;;;;;;;2.58;nan;100208.69;5001294;28;20028;-74
2023/03/05 01:11:43;;;;;;;42.83;18.77;;;;;;;2.46;nan;100196.13;4999747;28;20527;-75
2023/03/05 01:14:09;;;;;;;41.22;18.33;;;;;;;2.47;nan;100205.53;5002358;28;20022;-75
2023/03/05 01:16:34;;;;;;;43.90;19.63;;;;;;;2.39;nan;100197.81;4985315;28;20062;-74
2023/03/05 01:19:00;;;;;;;44.80;19.42;;;;;;;2.38;nan;100209.19;4997605;28;20026;-74
2023/03/05 01:21:25;;;;;;;43.70;20.20;;;;;;;2.19;nan;100204.50;5000462;28;20128;-74
2023/03/05 01:23:51;;;;;;;38.55;17.45;;;;;;;2.25;nan;100202.00;4981019;28;20022;-75
2023/03/05 01:26:16;;;;;;;39.22;17.63;;;;;;;2.11;nan;100200.16;4982580;28;20476;-75
2023/03/05 01:28:41;;;;;;;38.83;17.52;;;;;;;2.03;nan;100197.63;5002733;28;20029;-75
2023/03/05 01:31:10;;;;;;;36.75;16.77;;;;;;;2.08;nan;100222.09;5001625;28;20038;-75
2023/03/05 01:33:36;;;;;;;34.40;16.75;;;;;;;1.97;nan;100204.31;4997171;28;20029;-75
2023/03/05 01:36:05;;;;;;;33.78;15.45;;;;;;;1.93;nan;100221.22;4978749;28;20722;-75
2023/03/05 01:38:30;;;;;;;38.35;17.40;;;;;;;1.85;nan;100209.09;4998891;28;20095;-74
2023/03/05 01:40:56;;;;;;;38.80;17.00;;;;;;;1.85;nan;100205.72;5000092;28;20479;-75
2023/03/05 01:43:27;;;;;;;36.20;15.60;;;;;;;1.92;nan;100228.22;5002750;28;20022;-75
2023/03/05 01:46:20;;;;;;;37.60;16.90;;;;;;;1.88;nan;100234.72;4979852;28;20456;-75
2023/03/05 01:49:18;;;;;;;36.95;16.40;;;;;;;1.77;nan;100205.75;4981595;28;20076;-75
2023/03/05 01:51:44;;;;;;;33.35;16.10;;;;;;;1.76;nan;100228.31;4966617;28;20049;-74
2023/03/05 01:54:12;;;;;;;34.88;15.85;;;;;;;1.71;nan;100220.22;4999116;28;20026;-75
2023/03/05 01:56:39;;;;;;;34.40;15.77;;;;;;;1.65;nan;100200.13;4983245;28;20117;-75
2023/03/05 01:59:05;;;;;;;34.10;15.23;;;;;;;1.64;nan;100212.31;4995250;28;20105;-75
2023/03/05 02:01:35;;;;;;;36.45;15.02;;;;;;;1.42;nan;100193.13;4997903;28;20109;-75
2023/03/05 02:04:01;;;;;;;37.25;16.15;;;;;;;1.47;nan;100182.25;4993751;28;20034;-75
2023/03/05 02:06:27;;;;;;;33.05;14.27;;;;;;;1.61;nan;100220.44;4993682;28;20557;-75
2023/03/05 02:08:52;;;;;;;32.10;15.07;;;;;;;1.44;nan;100200.75;4998076;28;20036;-75
2023/03/05 02:11:19;;;;;;;35.10;15.20;;;;;;;1.48;nan;100213.22;4977942;28;20037;-75
2023/03/05 02:13:44;;;;;;;32.95;14.63;;;;;;;1.46;nan;100201.38;4982419;28;20571;-75
2023/03/05 02:16:10;;;;;;;31.65;14.52;;;;;;;1.51;nan;100214.66;4993109;28;20116;-75
2023/03/05 02:18:35;;;;;;;32.17;14.43;;;;;;;1.27;nan;100190.47;4989028;28;20049;-75
2023/03/05 02:21:09;;;;;;;26.80;13.23;;;;;;;1.32;nan;100202.09;4978081;28;20366;-75
2023/03/05 02:23:36;;;;;;;34.47;13.93;;;;;;;1.31;nan;100209.06;4998749;28;20026;-76
2023/03/05 02:26:04;;;;;;;30.88;14.40;;;;;;;1.40;nan;100226.22;4977048;28;20033;-75
2023/03/05 02:28:33;;;;;;;30.23;13.68;;;;;;;1.38;nan;100224.78;4998138;28;20026;-75
2023/03/05 02:30:58;;;;;;;28.88;13.60;;;;;;;1.14;nan;100204.94;4999690;28;20028;-75
2023/03/05 02:33:24;;;;;;;33.33;14.07;;;;;;;1.32;nan;100220.25;4998177;28;20879;-75
2023/03/05 02:35:49;;;;;;;34.28;14.10;;;;;;;1.20;nan;100210.25;4995314;28;20032;-75
2023/03/05 02:38:18;;;;;;;28.25;12.90;;;;;;;1.17;nan;100207.19;4999326;28;20045;-75
2023/03/05 02:40:44;;;;;;;32.38;12.68;;;;;;;1.22;nan;100223.03;4997868;28;20028;-75
2023/03/05 02:43:10;;;;;;;29.73;14.10;;;;;;;1.18;nan;100221.78;4983726;28;20037;-75
2023/03/05 02:45:36;;;;;;;31.35;13.65;;;;;;;1.02;nan;100200.09;5002004;28;20140;-75
2023/03/05 02:48:02;;;;;;;30.45;13.73;;;;;;;1.05;nan;100204.16;4997614;28;20463;-74
2023/03/05 02:50:28;;;;;;;30.50;13.77;;;;;;;1.17;nan;100214.97;4996542;28;20026;-76
2023/03/05 02:52:53;;;;;;;35.42;14.82;;;;;;;1.10;nan;100204.44;4996164;28;20093;-75
2023/03/05 02:55:18;;;;;;;32.53;14.77;;;;;;;0.80;nan;100173.13;4998567;28;20109;-75
2023/03/05 02:57:44;;;;;;;27.42;13.20;;;;;;;1.03;nan;100206.91;4998262;28;20366;-75
2023/03/05 03:00:10;;;;;;;32.38;14.68;;;;;;;1.06;nan;100218.75;4978964;28;20034;-75
2023/03/05 03:02:36;;;;;;;34.33;15.13;;;;;;;1.16;nan;100232.31;4998551;28;20767;-75
2023/03/05 03:05:01;;;;;;;29.80;13.70;;;;;;;1.11;nan;100223.44;4980993;28;20034;-74
2023/03/05 03:07:26;;;;;;;29.40;13.07;;;;;;;1.06;nan;100219.53;4979712;28;20504;-75
2023/03/05 03:09:52;;;;;;;33.17;14.18;;;;;;;1.10;nan;100224.38;5000609;28;20109;-75
2023/03/05 03:12:17;;;;;;;37.85;13.63;;;;;;;1.07;nan;100217.75;4997444;28;20037;-75
2023/03/05 03:14:43;;;;;;;28.98;13.93;;;;;;;1.05;nan;100219.69;4987636;28;20082;-75
2023/03/05 03:17:11;;;;;;;32.95;14.05;;;;;;;1.20;nan;100238.00;4997309;28;20139;-75
2023/03/05 03:19:38;;;;;;;30.88;13.88;;;;;;;1.09;nan;100236.56;4995355;28;20124;-74
2023/03/05 03:22:04;;;;;;;31.67;13.88;;;;;;;1.07;nan;100230.72;4998226;28;20030;-75
2023/03/05 03:24:30;;;;;;;32.95;14.35;;;;;;;1.01;nan;100227.03;4999854;28;20033;-75
2023/03/05 03:26:56;;;;;;;31.65;14.50;;;;;;;1.13;nan;100244.81;4998943;28;20030;-74
2023/03/05 03:29:22;;;;;;;32.25;13.82;;;;;;;0.96;nan;100215.50;4987381;28;20625;-75
2023/03/05 03:31:47;;;;;;;29.73;12.40;;;;;;;0.97;nan;100215.34;4999946;28;20926;-74
2023/03/05 03:34:15;;;;;;;27.77;12.85;;;;;;;0.96;nan;100229.31;4997830;28;20030;-75
2023/03/05 03:36:44;;;;;;;31.80;13.88;;;;;;;1.00;nan;100245.31;4986551;28;20484;-75
2023/03/05 03:39:10;;;;;;;30.13;13.45;;;;;;;1.02;nan;100243.38;5000139;28;20065;-75
2023/03/05 03:41:39;;;;;;;30.15;13.68;;;;;;;1.02;nan;100243.38;4997651;28;20488;-75
2023/03/05 03:44:07;;;;;;;35.97;13.23;;;;;;;0.91;nan;100234.19;4983596;28;20087;-74
2023/03/05 03:46:33;;;;;;;27.65;12.40;;;;;;;0.96;nan;100249.22;4982908;28;20045;-75
2023/03/05 03:48:59;;;;;;;26.10;13.07;;;;;;;0.85;nan;100237.44;5003495;28;20041;-75
2023/03/05 03:51:24;;;;;;;31.70;14.23;;;;;;;0.82;nan;100235.16;5000213;28;20067;-74
2023/03/05 03:53:50;;;;;;;27.20;13.13;;;;;;;0.77;nan;100234.88;4984441;28;20022;-75
2023/03/05 03:56:15;;;;;;;29.98;13.75;;;;;;;0.75;nan;100235.00;4983197;28;20124;-75
2023/03/05 03:58:41;;;;;;;27.95;12.88;;;;;;;0.70;nan;100226.13;4991316;28;20036;-75
2023/03/05 04:01:06;;;;;;;30.92;13.60;;;;;;;0.72;nan;100243.13;4983846;28;20519;-76
2023/03/05 04:03:31;;;;;;;30.80;13.43;;;;;;;0.55;nan;100219.03;4998419;28;20025;-75
2023/03/05 04:05:57;;;;;;;29.38;13.50;;;;;;;0.55;nan;100228.56;4991144;28;20032;-75
2023/03/05 04:08:22;;;;;;;33.10;13.43;;;;;;;0.59;nan;100251.38;4983630;28;20060;-75
2023/03/05 04:10:47;;;;;;;31.25;13.70;;;;;;;0.42;nan;100221.28;5003776;28;20057;-75
2023/03/05 04:13:13;;;;;;;35.22;14.10;;;;;;;0.41;nan;100232.63;4981554;28;20498;-75
2023/03/05 04:15:38;;;;;;;31.45;13.52;;;;;;;0.40;nan;100228.41;5000313;28;20395;-75
2023/03/05 04:18:03;;;;;;;29.08;13.40;;;;;;;0.40;nan;100234.38;4998332;28;20433;-75
2023/03/05 04:20:29;;;;;;;32.20;14.27;;;;;;;0.37;nan;100244.28;5000405;28;20092;-75
2023/03/05 04:22:54;;;;;;;27.70;13.10;;;;;;;0.35;nan;100248.81;4999498;28;20034;-75
2023/03/05 04:25:20;;;;;;;31.15;13.27;;;;;;;0.30;nan;100251.09;4998855;28;20030;-76
2023/03/05 04:27:45;;;;;;;30.48;14.05;;;;;;;0.16;nan;100242.97;5001997;28;20034;-75
2023/03/05 04:30:13;;;;;;;31.60;14.80;;;;;;;0.26;nan;100265.31;4998210;28;20018;-76
2023/03/05 04:32:39;;;;;;;36.17;15.25;;;;;;;0.18;nan;100266.94;4999756;28;20525;-75
2023/03/05 04:35:05;;;;;;;33.35;15.38;;;;;;;0.06;nan;100252.66;4998050;28;20033;-75
2023/03/05 04:37:31;;;;;;;34.10;15.35;;;;;;;0.07;nan;100259.47;5002304;28;20500;-76
2023/03/05 04:39:56;;;;;;;37.95;15.25;;;;;;;0.04;nan;100253.81;5000838;28;20057;-75
2023/03/05 04:42:22;;;;;;;31.80;14.10;;;;;;;-0.02;nan;100244.91;5000889;28;20034;-75
2023/03/05 04:44:49;;;;;;;36.17;14.88;;;;;;;-0.21;nan;100214.94;5002561;28;20022;-76
2023/03/05 04:47:14;;;;;;;32.88;14.38;;;;;;;;;;4985721;28;20608;-75
2023/03/05 04:49:40;;;;;;;33.03;14.82;;;;;;;-0.11;nan;100246.66;5000615;28;20028;-76
2023/03/05 04:52:05;;;;;;;36.97;15.00;;;;;;;;;;5001318;28;20564;-75
2023/03/05 04:54:31;;;;;;;31.20;14.68;;;;;;;;;;4980743;28;20025;-76
2023/03/05 04:56:56;;;;;;;31.33;13.77;;;;;;;;;;4981322;28;20038;-75
2023/03/05 04:59:21;;;;;;;38.72;15.35;;;;;;;;;;4989772;28;20500;-76
2023/03/05 05:01:46;;;;;;;37.38;15.27;;;;;;;;;;4999507;28;20025;-76
2023/03/05 05:04:12;;;;;;;36.53;15.37;;;;;;;;;;5000777;28;20117;-77
2023/03/05 05:06:37;;;;;;;33.63;14.43;;;;;;;;;;4981269;28;20279;-76
2023/03/05 05:09:02;;;;;;;34.50;15.45;;;;;;;;;;4999735;28;20092;-76
2023/03/05 05:11:28;;;;;;;37.03;16.00;;;;;;;;;;5001941;28;20029;-75
2023/03/05 05:13:53;;;;;;;38.25;16.63;;;;;;;;;;5000122;28;20816;-76
2023/03/05 05:16:18;;;;;;;40.30;16.17;;;;;;;;;;4998585;28;20041;-75
2023/03/05 05:18:44;;;;;;;37.75;16.17;;;;;;;;;;4999846;28;20330;-76
2023/03/05 05:21:10;;;;;;;34.37;14.83;;;;;;;;;;5002538;28;20468;-76
2023/03/05 05:23:35;;;;;;;32.42;14.48;;;;;;;;;;4999458;28;20274;-77
2023/03/05 05:26:01;;;;;;;38.38;15.48;;;;;;;;;;5002497;28;20563;-77
2023/03/05 05:28:27;;;;;;;38.50;15.65;;;;;;;;;;5001678;28;20112;-76
2023/03/05 05:30:52;;;;;;;31.83;14.02;;;;;;;;;;4990018;28;20030;-77
2023/03/05 05:33:17;;;;;;;34.15;14.65;;;;;;;;;;4984643;28;20034;-76
2023/03/05 05:35:43;;;;;;;36.17;14.47;;;;;;;;;;5000164;28;20129;-76
2023/03/05 05:38:08;;;;;;;38.90;16.33;;;;;;;;;;4999010;28;20693;-77
2023/03/05 05:40:33;;;;;;;47.33;21.13;;;;;;;;;;4981478;28;20282;-77
2023/03/05 05:42:58;;;;;;;55.13;23.93;;;;;;;;;;4999417;28;20042;-77
2023/03/05 05:45:24;;;;;;;54.83;25.37;;;;;;;;;;4982362;28;21088;-76
2023/03/05 05:47:49;;;;;;;62.17;26.77;;;;;;;;;;4996790;28;20428;-76
2023/03/05 05:50:15;;;;;;;56.45;24.42;;;;;;;;;;4989585;28;20292;-76
2023/03/05 05:52:40;;;;;;;48.65;22.85;;;;;;;;;;4998064;28;20468;-76
2023/03/05 05:55:06;;;;;;;52.50;23.00;;;;;;;;;;4981672;28;20037;-76
2023/03/05 05:57:31;;;;;;;50.55;22.48;;;;;;;;;;4998537;28;20396;-77
2023/03/05 05:59:56;;;;;;;45.78;21.83;;;;;;;;;;5003317;28;20391;-76
2023/03/05 06:02:21;;;;;;;44.23;19.07;;;;;;;;;;5001141;28;20082;-76
2023/03/05 06:04:47;;;;;;;44.83;17.92;;;;;;;;;;4996339;28;20030;-76
2023/03/05 06:07:12;;;;;;;42.67;17.50;;;;;;;;;;4998210;28;20046;-75
2023/03/05 06:09:37;;;;;;;46.63;19.60;;;;;;;;;;5000473;28;20073;-76
2023/03/05 06:12:03;;;;;;;54.77;21.23;;;;;;;;;;5001291;28;20098;-76
2023/03/05 06:14:28;;;;;;;51.97;21.13;;;;;;;;;;4996705;28;20264;-76
2023/03/05 06:16:53;;;;;;;43.92;18.30;;;;;;;;;;4988575;28;20091;-75
2023/03/05 06:19:19;;;;;;;36.30;16.27;;;;;;;;;;4988118;28;20018;-76
2023/03/05 06:21:44;;;;;;;42.57;16.43;;;;;;;;;;4997697;28;20284;-76
2023/03/05 06:24:09;;;;;;;41.37;16.53;;;;;;;;;;5000852;28;20084;-76
2023/03/05 06:26:34;;;;;;;41.50;16.77;;;;;;;;;;4988802;28;20372;-75
2023/03/05 06:29:00;;;;;;;44.03;18.07;;;;;;;;;;4998204;28;20100;-76
2023/03/05 06:31:26;;;;;;;41.00;17.05;;;;;;;;;;4989243;28;20280;-76
2023/03/05 06:33:53;;;;;;;34.05;16.15;;;;;;;;;;4981644;28;20026;-76
2023/03/05 06:36:19;;;;;;;32.72;14.75;;;;;;;;;;4988676;28;20475;-76
2023/03/05 06:38:45;;;;;;;37.97;15.55;;;;;;;;;;4991340;28;20029;-77
2023/03/05 06:41:12;;;;;;;34.95;13.75;;;;;;;;;;4999871;28;20034;-76
2023/03/05 06:43:38;;;;;;;30.35;14.15;;;;;;;;;;4999268;28;20109;-76
2023/03/05 06:46:09;;;;;;;34.15;15.65;;;;;;;;;;4999798;28;20029;-77
2023/03/05 06:48:34;;;;;;;34.13;14.85;;;;;;;;;;5002645;28;20030;-76
2023/03/05 06:50:59;;;;;;;36.37;15.63;;;;;;;;;;5001586;28;20109;-77
2023/03/05 06:53:25;;;;;;;33.70;14.57;;;;;;;;;;5002776;28;20452;-76
2023/03/05 06:55:50;;;;;;;27.48;13.07;;;;;;;;;;4983777;28;20275;-76
2023/03/05 06:58:16;;;;;;;52.38;17.67;;;;;;;;;;4998244;28;20069;-77
2023/03/05 07:00:42;;;;;;;357.93;85.97;;;;;;;;;;5000932;28;20033;-77
2023/03/05 07:03:07;;;;;;;63.13;23.05;;;;;;;;;;4996400;28;20280;-76
2023/03/05 07:05:32;;;;;;;48.57;18.33;;;;;;;;;;5007100;28;20091;-77
2023/03/05 07:07:57;;;;;;;42.10;16.70;;;;;;;;;;4991643;28;20667;-76
2023/03/05 07:10:23;;;;;;;46.67;17.50;;;;;;;;;;4983905;28;20037;-77
2023/03/05 07:12:48;;;;;;;46.97;17.67;;;;;;;;;;5005509;28;20087;-76
2023/03/05 07:15:13;;;;;;;31.33;14.17;;;;;;;;;;4985297;28;21262;-77
2023/03/05 07:17:38;;;;;;;31.20;14.17;;;;;;;;;;5003356;28;20404;-77
2023/03/05 07:20:04;;;;;;;30.23;14.03;;;;;;;;;;4979621;28;20030;-75
2023/03/05 07:22:29;;;;;;;32.15;14.30;;;;;;;;;;4996166;28;20271;-76
2023/03/05 07:24:54;;;;;;;26.70;13.27;;;;;;;;;;4984731;28;20081;-76
2023/03/05 07:27:22;;;;;;;25.53;11.90;;;;;;;;;;4993071;28;20275;-76
2023/03/05 07:29:47;;;;;;;25.50;11.57;;;;;;;;;;5000578;28;20034;-76
2023/03/05 07:32:12;;;;;;;26.93;12.40;;;;;;;;;;4992424;28;20032;-77
2023/03/05 07:34:38;;;;;;;26.08;12.60;;;;;;;;;;4984157;28;20298;-76
2023/03/05 07:37:03;;;;;;;29.00;12.52;;;;;;;;;;5003479;28;20022;-76
2023/03/05 07:39:28;;;;;;;28.90;13.20;;;;;;;;;;5000628;28;20030;-76
2023/03/05 07:41:53;;;;;;;25.53;12.93;;;;;;;;;;4991844;28;20041;-76
2023/03/05 07:44:19;;;;;;;28.87;13.33;;;;;;;;;;4982840;28;20030;-76
2023/03/05 07:46:44;;;;;;;29.48;13.27;;;;;;;;;;5000279;28;20887;-76
2023/03/05 07:49:10;;;;;;;29.40;13.00;;;;;;;;;;4983807;28;20030;-76
2023/03/05 07:51:35;;;;;;;29.27;13.48;;;;;;;;;;4986427;28;20038;-76
2023/03/05 07:54:01;;;;;;;28.13;12.77;;;;;;;;;;5001749;28;20018;-76
2023/03/05 07:56:30;;;;;;;32.47;13.85;;;;;;;;;;4991333;28;20025;-76
2023/03/05 07:58:59;;;;;;;31.30;13.15;;;;;;;;;;5001347;28;20041;-75
2023/03/05 08:01:24;;;;;;;26.85;13.93;;;;;;;;;;4983423;28;20403;-75
2023/03/05 08:03:49;;;;;;;29.25;13.40;;;;;;;;;;5001399;28;20029;-76
2023/03/05 08:06:14;;;;;;;26.40;12.80;;;;;;;;;;5006077;28;20036;-75
2023/03/05 08:08:40;;;;;;;27.23;12.45;;;;;;;;;;4998024;28;20042;-76
2023/03/05 08:11:06;;;;;;;34.23;13.67;;;;;;;;;;4983616;28;20030;-75
2023/03/05 08:13:32;;;;;;;27.70;12.93;;;;;;;;;;4984242;28;20841;-76
2023/03/05 08:15:57;;;;;;;30.00;13.05;;;;;;;;;;5000090;28;20053;-76
2023/03/05 08:18:22;;;;;;;31.77;13.45;;;;;;;;;;5003829;28;20029;-75
2023/03/05 08:20:47;;;;;;;30.10;14.38;;;;;;;;;;4997608;28;20022;-75
2023/03/05 08:23:13;;;;;;;30.87;13.37;;;;;;;;;;4999475;28;20116;-76
2023/03/05 08:25:38;;;;;;;30.55;13.77;;;;;;;2.29;nan;100307.19;5000182;28;20275;-76
2023/03/05 08:28:03;;;;;;;32.13;13.98;;;;;;;;;;4982081;28;20132;-76
2023/03/05 08:30:29;;;;;;;30.65;13.90;;;;;;;;;;4997781;28;20038;-75
2023/03/05 08:32:54;;;;;;;31.20;14.60;;;;;;;;;;4999289;28;20101;-74
2023/03/05 08:35:20;;;;;;;27.92;13.65;;;;;;;;;;5001954;28;20280;-75
2023/03/05 08:37:45;;;;;;;32.55;14.73;;;;;;;;;;5001873;28;20030;-75
2023/03/05 08:40:11;;;;;;;26.67;13.13;;;;;;;;;;4984456;28;20413;-75
2023/03/05 08:42:36;;;;;;;28.77;13.43;;;;;;;;;;5001045;28;20088;-75
2023/03/05 08:45:01;;;;;;;27.53;13.20;;;;;;;;;;5001182;28;20034;-75
2023/03/05 08:47:27;;;;;;;29.13;14.67;;;;;;;;;;5002207;28;20084;-75
2023/03/05 08:49:54;;;;;;;28.98;13.82;;;;;;;;;;5000188;28;20633;-75
2023/03/05 08:52:20;;;;;;;34.45;14.02;;;;;;;;;;4989931;28;20447;-75
2023/03/05 08:54:46;;;;;;;26.48;12.60;;;;;;;;;;5000043;28;20113;-75
2023/03/05 08:57:11;;;;;;;29.30;13.70;;;;;;;;;;4991070;28;20440;-75
2023/03/05 08:59:36;;;;;;;29.10;13.47;;;;;;;;;;5001419;28;20037;-75
2023/03/05 09:02:02;;;;;;;28.00;13.27;;;;;;;;;;4998759;28;20121;-75
2023/03/05 09:04:27;;;;;;;32.42;14.80;;;;;;;;;;4998274;28;20038;-75
2023/03/05 09:06:52;;;;;;;26.77;12.90;;;;;;;;;;4983302;28;20378;-75
2023/03/05 09:09:20;;;;;;;30.53;13.73;;;;;;;;;;5002159;28;20053;-75
2023/03/05 09:11:45;;;;;;;30.63;14.25;;;;;;;;;;4981009;28;20276;-74
2023/03/05 09:14:10;;;;;;;28.05;13.45;;;;;;;;;;4999278;28;20073;-76
2023/03/05 09:16:39;;;;;;;29.77;13.77;;;;;;;;;;4996429;28;20364;-75
2023/03/05 09:19:04;;;;;;;30.27;15.23;;;;;;;;;;4998701;28;20033;-75
2023/03/05 09:21:29;;;;;;;28.67;13.63;;;;;;;;;;4999964;28;20034;-75
2023/03/05 09:23:58;;;;;;;29.55;14.50;;;;;;;;;;4996742;28;20286;-75
2023/03/05 09:26:23;;;;;;;26.43;12.87;;;;;;;;;;4997745;28;20477;-75
2023/03/05 09:28:48;;;;;;;27.10;14.23;;;;;;;;;;4991344;28;20037;-75
2023/03/05 09:31:14;;;;;;;23.73;12.67;;;;;;;;;;5000142;28;20105;-75
2023/03/05 09:33:40;;;;;;;28.88;13.45;;;;;;;;;;4981775;28;20026;-75
2023/03/05 09:36:15;;;;;;;26.27;13.15;;;;;;;;;;4984570;28;20318;-75
2023/03/05 09:38:40;;;;;;;30.50;13.85;;;;;;;;;;4997661;28;20030;-76
2023/03/05 09:41:13;;;;;;;27.03;13.27;;;;;;;;;;5001194;28;20096;-75
2023/03/05 09:43:57;;;;;;;27.00;12.75;;;;;;;;;;5001185;28;20333;-76
2023/03/05 09:46:35;;;;;;;24.52;12.85;;;;;;;;;;5000234;28;20070;-75
2023/03/05 09:49:11;;;;;;;26.05;12.68;;;;;;;;;;4999617;28;20124;-75
2023/03/05 09:51:39;;;;;;;27.73;13.65;;;;;;;;;;4983845;28;20499;-75
2023/03/05 09:54:18;;;;;;;27.10;13.98;;;;;;;;;;4999803;28;20473;-75
2023/03/05 09:56:49;;;;;;;29.17;15.25;;;;;;;;;;4980694;28;20480;-75
2023/03/05 09:59:21;;;;;;;31.15;13.68;;;;;;;;;;4981562;28;20076;-75
2023/03/05 10:01:47;;;;;;;31.10;14.95;;;;;;;;;;4982499;28;20034;-75
2023/03/05 10:04:22;;;;;;;25.85;13.77;;;;;;;;;;4979628;28;20117;-76
2023/03/05 10:07:03;;;;;;;26.33;13.77;;;;;;;;;;4979255;28;20570;-75
2023/03/05 10:09:41;;;;;;;25.17;13.13;;;;;;;;;;4997839;28;20030;-75
2023/03/05 10:12:12;;;;;;;29.33;14.18;;;;;;;;;;4998344;28;20034;-76
2023/03/05 10:14:38;;;;;;;25.83;13.25;;;;;;;;;;4995244;28;20050;-75
2023/03/05 10:17:22;;;;;;;24.70;13.40;;;;;;;;;;4982197;28;20030;-75
2023/03/05 10:20:07;;;;;;;25.63;13.60;;;;;;;;;;4982165;28;20062;-75
2023/03/05 10:22:38;;;;;;;27.02;13.38;;;;;;;;;;4996010;28;20024;-76
2023/03/05 10:25:06;;;;;;;28.38;13.80;;;;;;;;;;4997391;28;20109;-75
2023/03/05 10:27:34;;;;;;;28.95;13.95;;;;;;;;;;5000354;28;20024;-76
2023/03/05 10:30:16;;;;;;;28.80;14.55;;;;;;;;;;4997831;28;20559;-75
2023/03/05 10:32:56;;;;;;;32.13;16.13;;;;;;;;;;4981832;28;20029;-76
2023/03/05 10:35:22;;;;;;;29.35;14.60;;;;;;;;;;4982721;28;20210;-75
2023/03/05 10:37:53;;;;;;;29.97;15.17;;;;;;;;;;4999361;28;20061;-76
2023/03/05 10:40:22;;;;;;;27.20;13.98;;;;;;;;;;4978898;28;20279;-75
2023/03/05 10:43:05;;;;;;;27.13;13.32;;;;;;;;;;4994122;28;20034;-75
2023/03/05 10:45:35;;;;;;;27.85;14.00;;;;;;;;;;4997852;28;20033;-75
2023/03/05 10:48:11;;;;;;;28.67;14.50;;;;;;;;;;5000498;28;20048;-75
2023/03/05 10:50:39;;;;;;;26.60;13.70;;;;;;;;;;4996286;28;20037;-75
2023/03/05 10:53:16;;;;;;;27.77;13.23;;;;;;;;;;4995927;28;20388;-75
2023/03/05 10:55:41;;;;;;;25.05;13.70;;;;;;;;;;4981689;28;20029;-75
2023/03/05 10:58:11;;;;;;;24.38;12.82;;;;;;;;;;4996686;28;20389;-76
2023/03/05 11:00:36;;;;;;;24.50;13.45;;;;;;;;;;4995276;28;20080;-75
2023/03/05 11:03:03;;;;;;;25.00;13.43;;;;;;;;;;4996741;28;20026;-75
2023/03/05 11:05:38;;;;;;;25.15;13.25;;;;;;;;;;4996086;28;20492;-75
2023/03/05 11:08:18;;;;;;;25.52;13.30;;;;;;;;;;4980605;28;20077;-75
2023/03/05 11:10:43;;;;;;;22.92;12.23;;;;;;;;;;4980855;28;20496;-75
2023/03/05 11:13:38;;;;;;;22.65;12.05;;;;;;;;;;4996851;28;20092;-76
2023/03/05 11:16:04;;;;;;;26.83;13.52;;;;;;;;;;4978027;28;20124;-75
2023/03/05 11:18:36;;;;;;;27.60;13.93;;;;;;;;;;4993885;28;20523;-76
2023/03/05 11:21:09;;;;;;;26.60;13.95;;;;;;;;;;4999814;28;20037;-76
2023/03/05 11:23:34;;;;;;;27.55;14.07;;;;;;;;;;4996076;28;20125;-75
2023/03/05 11:26:01;;;;;;;28.97;14.63;;;;;;;;;;5000474;28;20153;-75
2023/03/05 11:28:30;;;;;;;26.92;14.48;;;;;;;;;;4998247;28;20280;-76
2023/03/05 11:31:01;;;;;;;24.50;13.38;;;;;;;;;;4997463;28;20168;-76
2023/03/05 11:33:27;;;;;;;28.17;14.10;;;;;;;;;;4982684;28;20149;-76
2023/03/05 11:36:08;;;;;;;26.25;14.57;;;;;;;;;;4998906;28;20447;-76
2023/03/05 11:38:42;;;;;;;27.00;13.75;;;;;;;;;;4978876;28;20022;-75
2023/03/05 11:41:08;;;;;;;26.77;13.65;;;;;;;;;;4999150;28;20038;-75
2023/03/05 11:43:36;;;;;;;26.50;13.30;;;;;;;;;;4999342;28;20026;-75
2023/03/05 11:46:02;;;;;;;27.85;14.25;;;;;;;;;;4978498;28;20141;-75
2023/03/05 11:48:31;;;;;;;27.63;14.25;;;;;;;;;;4999945;28;20800;-75
2023/03/05 11:51:00;;;;;;;23.52;13.20;;;;;;;;;;5000095;28;20574;-75
2023/03/05 11:53:27;;;;;;;25.73;13.23;;;;;;;;;;4998743;28;20317;-75
2023/03/05 11:56:12;;;;;;;25.90;13.13;;;;;;;;;;4981931;28;20117;-75
2023/03/05 11:58:37;;;;;;;26.80;14.27;;;;;;;;;;4986952;28;20049;-75
2023/03/05 12:01:05;;;;;;;24.60;13.40;;;;;;;;;;4980228;28;20808;-75
2023/03/05 12:03:32;;;;;;;22.95;12.70;;;;;;;;;;4998850;28;20037;-75
2023/03/05 12:06:05;;;;;;;22.75;13.50;;;;;;;;;;4984849;28;21239;-75
2023/03/05 12:08:32;;;;;;;27.63;14.02;;;;;;;;;;4983085;28;20081;-76
2023/03/05 12:11:00;;;;;;;24.73;14.00;;;;;;;;;;5005135;28;20045;-76
2023/03/05 12:13:31;;;;;;;26.52;12.68;;;;;;;;;;5004909;28;20079;-76
2023/03/05 12:16:11;;;;;;;23.90;12.68;;;;;;;;;;5001353;28;20033;-75
2023/03/05 12:18:39;;;;;;;23.42;11.98;;;;;;;;;;5004166;28;20140;-75
2023/03/05 12:21:06;;;;;;;18.17;9.77;;;;;;;;;;5001377;28;20472;-76
2023/03/05 12:23:46;;;;;;;22.75;10.80;;;;;;;;;;5002897;28;20032;-76
2023/03/05 12:26:11;;;;;;;20.90;10.60;;;;;;;;;;5002758;28;20065;-76
2023/03/05 12:28:44;;;;;;;19.60;10.10;;;;;;;;;;4997996;28;20033;-75
2023/03/05 12:31:34;;;;;;;20.33;9.70;;;;;;;;;;5001633;28;20286;-76
2023/03/05 12:34:19;;;;;;;20.58;10.73;;;;;;;;;;5001747;28;20099;-75
2023/03/05 12:36:45;;;;;;;19.67;10.38;;;;;;;;;;5000071;28;20034;-75
2023/03/05 12:39:33;;;;;;;19.17;9.68;;;;;;;;;;4998331;28;20032;-75
2023/03/05 12:41:58;;;;;;;21.00;10.30;;;;;;;;;;4957340;28;20074;-76
2023/03/05 12:44:24;;;;;;;17.77;9.48;;;;;;;;;;4943921;28;20068;-76
2023/03/05 12:47:22;;;;;;;20.05;10.32;;;;;;;;;;4947809;28;20050;-76
2023/03/05 12:49:47;;;;;;;19.90;10.90;;;;;;;;;;4944991;28;20205;-75
2023/03/05 12:52:20;;;;;;;18.73;9.65;;;;;;;;;;4958818;28;20050;-76
2023/03/05 12:54:55;;;;;;;18.85;9.13;;;;;;;;;;4958541;28;20035;-76
2023/03/05 12:57:22;;;;;;;16.13;9.18;;;;;;;;;;4949176;28;20043;-76
2023/03/05 12:59:53;;;;;;;14.38;7.88;;;;;;;;;;4957381;28;20035;-77
2023/03/05 13:02:31;;;;;;;15.07;7.97;;;;;;;;;;4940457;28;20388;-75
2023/03/05 13:04:58;;;;;;;13.23;7.20;;;;;;;;;;4939593;28;20034;-76
2023/03/05 13:07:23;;;;;;;17.50;7.22;;;;;;;;;;4941672;28;20126;-76
2023/03/05 13:09:52;;;;;;;13.23;7.40;;;;;;;;;;4940771;28;20114;-75
2023/03/05 13:12:18;;;;;;;14.43;7.47;;;;;;;;;;4942115;28;20938;-76